sensor_id;sensor_type;location;lat;lon;timestamp;pressure;altitude;pressure_sealevel;temperature;humidity
56176;BME280;63065;51.082;17.016;2023-03-26T00:02:25;99175.45;;;14.12;34.84
56176;BME280;63065;51.082;17.016;2023-03-26T00:04:51;99178.62;;;13.70;35.27
56176;BME280;63065;51.082;17.016;2023-03-26T00:07:16;99175.97;;;13.80;35.74
56176;BME280;63065;51.082;17.016;2023-03-26T00:09:43;99176.18;;;13.72;35.26
56176;BME280;63065;51.082;17.016;2023-03-26T00:12:08;99173.78;;;13.66;35.27
56176;BME280;63065;51.082;17.016;2023-03-26T00:14:33;99176.09;;;13.87;34.79
56176;BME280;63065;51.082;17.016;2023-03-26T00:16:59;99176.44;;;13.73;35.54
56176;BME280;63065;51.082;17.016;2023-03-26T00:19:25;99173.43;;;13.64;35.56
56176;BME280;63065;51.082;17.016;2023-03-26T00:21:50;99172.26;;;13.52;36.53
56176;BME280;63065;51.082;17.016;2023-03-26T00:24:16;99168.35;;;14.00;36.31
56176;BME280;63065;51.082;17.016;2023-03-26T00:26:42;99162.29;;;13.93;35.84
56176;BME280;63065;51.082;17.016;2023-03-26T00:29:09;99162.49;;;14.05;35.91
56176;BME280;63065;51.082;17.016;2023-03-26T00:31:34;99159.10;;;14.16;35.80
56176;BME280;63065;51.082;17.016;2023-03-26T00:33:59;99155.36;;;14.24;35.41
56176;BME280;63065;51.082;17.016;2023-03-26T00:36:25;99157.46;;;14.03;36.16
56176;BME280;63065;51.082;17.016;2023-03-26T00:38:51;99154.90;;;14.08;36.16
56176;BME280;63065;51.082;17.016;2023-03-26T00:41:17;99154.06;;;14.13;36.28
56176;BME280;63065;51.082;17.016;2023-03-26T00:43:44;99155.05;;;14.20;36.06
56176;BME280;63065;51.082;17.016;2023-03-26T00:46:08;99154.09;;;14.18;35.49
56176;BME280;63065;51.082;17.016;2023-03-26T00:48:33;99150.18;;;14.06;35.80
56176;BME280;63065;51.082;17.016;2023-03-26T00:50:59;99148.02;;;13.24;36.17
56176;BME280;63065;51.082;17.016;2023-03-26T00:53:26;99149.53;;;13.95;36.59
56176;BME280;63065;51.082;17.016;2023-03-26T00:55:51;99148.15;;;14.03;35.73
56176;BME280;63065;51.082;17.016;2023-03-26T00:58:17;99145.06;;;14.05;35.79
56176;BME280;63065;51.082;17.016;2023-03-26T01:00:47;99143.33;;;13.97;36.40
56176;BME280;63065;51.082;17.016;2023-03-26T01:03:12;99146.81;;;13.93;35.80
56176;BME280;63065;51.082;17.016;2023-03-26T01:05:40;99144.79;;;13.97;35.91
56176;BME280;63065;51.082;17.016;2023-03-26T01:07:59;99142.52;;;14.11;35.75
56176;BME280;63065;51.082;17.016;2023-03-26T01:10:25;99137.08;;;13.99;35.37
56176;BME280;63065;51.082;17.016;2023-03-26T01:12:51;99137.03;;;13.92;35.63
56176;BME280;63065;51.082;17.016;2023-03-26T01:15:16;99139.44;;;13.93;35.49
56176;BME280;63065;51.082;17.016;2023-03-26T01:17:42;99136.57;;;13.75;36.00
56176;BME280;63065;51.082;17.016;2023-03-26T01:20:12;99138.00;;;13.54;36.01
56176;BME280;63065;51.082;17.016;2023-03-26T01:22:35;99137.92;;;13.82;35.74
56176;BME280;63065;51.082;17.016;2023-03-26T01:24:59;99135.67;;;13.86;35.13
56176;BME280;63065;51.082;17.016;2023-03-26T01:27:30;99143.93;;;13.65;35.90
56176;BME280;63065;51.082;17.016;2023-03-26T01:29:53;99144.15;;;13.76;35.86
56176;BME280;63065;51.082;17.016;2023-03-26T01:32:25;99141.27;;;13.84;35.80
56176;BME280;63065;51.082;17.016;2023-03-26T01:34:52;99141.95;;;13.77;35.32
56176;BME280;63065;51.082;17.016;2023-03-26T01:37:12;99140.70;;;13.62;35.20
56176;BME280;63065;51.082;17.016;2023-03-26T01:39:36;99140.59;;;14.00;35.42
56176;BME280;63065;51.082;17.016;2023-03-26T01:42:01;99136.46;;;13.81;36.37
56176;BME280;63065;51.082;17.016;2023-03-26T01:44:29;99136.83;;;13.64;35.45
56176;BME280;63065;51.082;17.016;2023-03-26T01:46:50;99137.87;;;13.67;35.52
56176;BME280;63065;51.082;17.016;2023-03-26T01:49:17;99134.95;;;13.54;35.94
56176;BME280;63065;51.082;17.016;2023-03-26T01:51:41;99138.32;;;13.58;36.52
56176;BME280;63065;51.082;17.016;2023-03-26T01:54:14;99141.19;;;13.26;36.35
56176;BME280;63065;51.082;17.016;2023-03-26T01:56:40;99141.72;;;13.55;36.36
56176;BME280;63065;51.082;17.016;2023-03-26T01:59:08;99142.83;;;13.16;36.27
56176;BME280;63065;51.082;17.016;2023-03-26T02:01:28;99138.60;;;13.09;37.31
56176;BME280;63065;51.082;17.016;2023-03-26T02:03:54;99134.32;;;13.44;36.39
56176;BME280;63065;51.082;17.016;2023-03-26T02:06:19;99133.28;;;13.59;36.77
56176;BME280;63065;51.082;17.016;2023-03-26T02:08:46;99130.89;;;13.17;37.27
56176;BME280;63065;51.082;17.016;2023-03-26T02:11:10;99129.76;;;12.97;36.74
56176;BME280;63065;51.082;17.016;2023-03-26T02:13:32;99128.67;;;12.99;37.01
56176;BME280;63065;51.082;17.016;2023-03-26T02:16:00;99127.54;;;13.53;36.04
56176;BME280;63065;51.082;17.016;2023-03-26T02:18:24;99125.25;;;13.47;36.46
56176;BME280;63065;51.082;17.016;2023-03-26T02:20:49;99127.28;;;13.39;37.10
56176;BME280;63065;51.082;17.016;2023-03-26T02:23:14;99123.57;;;13.83;36.62
56176;BME280;63065;51.082;17.016;2023-03-26T02:25:40;99117.52;;;13.89;35.80
56176;BME280;63065;51.082;17.016;2023-03-26T02:28:11;99117.53;;;13.42;36.26
56176;BME280;63065;51.082;17.016;2023-03-26T02:30:32;99124.96;;;13.78;36.18
56176;BME280;63065;51.082;17.016;2023-03-26T02:32:58;99123.38;;;13.67;36.28
56176;BME280;63065;51.082;17.016;2023-03-26T02:35:23;99127.58;;;13.33;36.44
56176;BME280;63065;51.082;17.016;2023-03-26T02:37:49;99127.12;;;13.19;36.84
56176;BME280;63065;51.082;17.016;2023-03-26T02:40:16;99125.77;;;13.17;37.22
56176;BME280;63065;51.082;17.016;2023-03-26T02:42:40;99126.14;;;13.10;36.83
56176;BME280;63065;51.082;17.016;2023-03-26T02:45:07;99124.18;;;13.41;36.27
56176;BME280;63065;51.082;17.016;2023-03-26T02:47:32;99121.13;;;13.55;36.13
56176;BME280;63065;51.082;17.016;2023-03-26T02:49:58;99120.75;;;13.52;36.08
56176;BME280;63065;51.082;17.016;2023-03-26T02:52:24;99120.23;;;13.40;36.29
56176;BME280;63065;51.082;17.016;2023-03-26T02:54:49;99120.07;;;14.00;35.92
56176;BME280;63065;51.082;17.016;2023-03-26T02:57:15;99115.43;;;13.64;36.10
56176;BME280;63065;51.082;17.016;2023-03-26T02:59:40;99116.89;;;13.84;36.52
56176;BME280;63065;51.082;17.016;2023-03-26T03:02:07;99116.13;;;14.04;36.11
56176;BME280;63065;51.082;17.016;2023-03-26T03:04:31;99108.27;;;13.85;36.41
56176;BME280;63065;51.082;17.016;2023-03-26T03:06:57;99108.13;;;14.01;36.94
56176;BME280;63065;51.082;17.016;2023-03-26T03:09:23;99106.03;;;14.05;36.86
56176;BME280;63065;51.082;17.016;2023-03-26T03:11:49;99109.37;;;14.28;36.85
56176;BME280;63065;51.082;17.016;2023-03-26T03:14:15;99108.39;;;14.05;36.57
56176;BME280;63065;51.082;17.016;2023-03-26T03:16:40;99111.65;;;14.41;35.76
56176;BME280;63065;51.082;17.016;2023-03-26T03:19:07;99110.87;;;14.39;35.97
56176;BME280;63065;51.082;17.016;2023-03-26T03:21:31;99114.53;;;14.03;36.69
56176;BME280;63065;51.082;17.016;2023-03-26T03:23:57;99114.72;;;14.12;35.19
56176;BME280;63065;51.082;17.016;2023-03-26T03:26:24;99117.90;;;13.69;36.39
56176;BME280;63065;51.082;17.016;2023-03-26T03:28:49;99115.84;;;14.45;36.11
56176;BME280;63065;51.082;17.016;2023-03-26T03:31:15;99122.32;;;13.62;36.96
56176;BME280;63065;51.082;17.016;2023-03-26T03:33:40;99127.58;;;13.92;36.85
56176;BME280;63065;51.082;17.016;2023-03-26T03:36:08;99127.17;;;13.42;37.37
56176;BME280;63065;51.082;17.016;2023-03-26T03:38:31;99131.36;;;13.39;37.19
56176;BME280;63065;51.082;17.016;2023-03-26T03:40:57;99126.96;;;13.70;36.28
56176;BME280;63065;51.082;17.016;2023-03-26T03:43:23;99133.87;;;13.31;37.32
56176;BME280;63065;51.082;17.016;2023-03-26T03:45:48;99136.69;;;13.61;36.68
56176;BME280;63065;51.082;17.016;2023-03-26T03:48:14;99136.62;;;13.53;36.21
56176;BME280;63065;51.082;17.016;2023-03-26T03:50:40;99137.46;;;13.39;36.20
56176;BME280;63065;51.082;17.016;2023-03-26T03:53:06;99139.14;;;13.85;36.56
56176;BME280;63065;51.082;17.016;2023-03-26T03:55:31;99143.97;;;13.24;36.16
56176;BME280;63065;51.082;17.016;2023-03-26T03:57:57;99142.71;;;13.17;35.43
56176;BME280;63065;51.082;17.016;2023-03-26T04:00:24;99144.81;;;13.13;35.63
56176;BME280;63065;51.082;17.016;2023-03-26T04:02:48;99147.75;;;13.85;35.91
56176;BME280;63065;51.082;17.016;2023-03-26T04:05:14;99147.68;;;13.62;35.42
56176;BME280;63065;51.082;17.016;2023-03-26T04:07:40;99144.17;;;13.75;34.86
56176;BME280;63065;51.082;17.016;2023-03-26T04:10:08;99136.39;;;14.08;35.66
56176;BME280;63065;51.082;17.016;2023-03-26T04:12:32;99147.41;;;13.77;35.17
56176;BME280;63065;51.082;17.016;2023-03-26T04:14:58;99148.44;;;13.47;35.29
56176;BME280;63065;51.082;17.016;2023-03-26T04:17:23;99151.07;;;13.50;35.20
56176;BME280;63065;51.082;17.016;2023-03-26T04:19:49;99150.58;;;13.40;35.17
56176;BME280;63065;51.082;17.016;2023-03-26T04:22:15;99151.21;;;13.74;35.10
56176;BME280;63065;51.082;17.016;2023-03-26T04:24:40;99147.29;;;13.74;34.42
56176;BME280;63065;51.082;17.016;2023-03-26T04:27:10;99148.87;;;13.57;34.75
56176;BME280;63065;51.082;17.016;2023-03-26T04:29:37;99151.98;;;13.80;34.55
56176;BME280;63065;51.082;17.016;2023-03-26T04:31:58;99152.33;;;13.68;34.72
56176;BME280;63065;51.082;17.016;2023-03-26T04:34:24;99154.61;;;13.62;35.21
56176;BME280;63065;51.082;17.016;2023-03-26T04:36:50;99154.79;;;13.61;34.62
56176;BME280;63065;51.082;17.016;2023-03-26T04:39:16;99156.52;;;13.88;34.70
56176;BME280;63065;51.082;17.016;2023-03-26T04:41:41;99155.18;;;13.67;34.40
56176;BME280;63065;51.082;17.016;2023-03-26T04:44:07;99154.20;;;13.92;34.36
56176;BME280;63065;51.082;17.016;2023-03-26T04:46:33;99161.56;;;13.14;35.20
56176;BME280;63065;51.082;17.016;2023-03-26T04:49:00;99162.30;;;12.94;35.88
56176;BME280;63065;51.082;17.016;2023-03-26T04:51:28;99163.27;;;13.08;36.03
56176;BME280;63065;51.082;17.016;2023-03-26T04:53:52;99170.62;;;13.27;36.30
56176;BME280;63065;51.082;17.016;2023-03-26T04:56:25;99160.89;;;13.46;36.10
56176;BME280;63065;51.082;17.016;2023-03-26T04:58:42;99165.77;;;12.94;36.53
56176;BME280;63065;51.082;17.016;2023-03-26T05:01:09;99161.44;;;13.47;36.23
56176;BME280;63065;51.082;17.016;2023-03-26T05:03:34;99159.98;;;13.80;35.78
56176;BME280;63065;51.082;17.016;2023-03-26T05:06:01;99161.85;;;13.28;36.12
56176;BME280;63065;51.082;17.016;2023-03-26T05:08:26;99163.66;;;12.14;37.77
56176;BME280;63065;51.082;17.016;2023-03-26T05:10:53;99165.02;;;12.88;36.79
56176;BME280;63065;51.082;17.016;2023-03-26T05:13:17;99169.85;;;13.16;36.27
56176;BME280;63065;51.082;17.016;2023-03-26T05:15:43;99161.71;;;12.82;36.81
56176;BME280;63065;51.082;17.016;2023-03-26T05:18:09;99166.59;;;12.88;36.76
56176;BME280;63065;51.082;17.016;2023-03-26T05:20:35;99166.31;;;12.95;36.48
56176;BME280;63065;51.082;17.016;2023-03-26T05:23:01;99167.03;;;13.11;36.17
56176;BME280;63065;51.082;17.016;2023-03-26T05:25:26;99171.19;;;12.81;36.91
56176;BME280;63065;51.082;17.016;2023-03-26T05:27:52;99168.48;;;12.36;37.78
56176;BME280;63065;51.082;17.016;2023-03-26T05:30:20;99170.84;;;12.32;37.63
56176;BME280;63065;51.082;17.016;2023-03-26T05:32:45;99169.33;;;12.55;37.78
56176;BME280;63065;51.082;17.016;2023-03-26T05:35:10;99168.78;;;12.77;37.25
56176;BME280;63065;51.082;17.016;2023-03-26T05:37:35;99166.32;;;12.98;36.94
56176;BME280;63065;51.082;17.016;2023-03-26T05:40:01;99164.08;;;12.93;36.87
56176;BME280;63065;51.082;17.016;2023-03-26T05:42:27;99164.01;;;12.95;37.33
56176;BME280;63065;51.082;17.016;2023-03-26T05:44:53;99167.12;;;13.28;37.03
56176;BME280;63065;51.082;17.016;2023-03-26T05:47:19;99166.79;;;13.06;36.50
56176;BME280;63065;51.082;17.016;2023-03-26T05:49:45;99163.64;;;13.47;36.87
56176;BME280;63065;51.082;17.016;2023-03-26T05:52:10;99163.66;;;13.73;36.33
56176;BME280;63065;51.082;17.016;2023-03-26T05:54:36;99167.11;;;13.34;36.46
56176;BME280;63065;51.082;17.016;2023-03-26T05:57:02;99173.14;;;13.63;36.85
56176;BME280;63065;51.082;17.016;2023-03-26T05:59:27;99174.93;;;13.66;36.36
56176;BME280;63065;51.082;17.016;2023-03-26T06:01:54;99174.74;;;13.40;37.51
56176;BME280;63065;51.082;17.016;2023-03-26T06:04:19;99169.77;;;13.79;36.48
56176;BME280;63065;51.082;17.016;2023-03-26T06:06:45;99166.19;;;14.19;35.96
56176;BME280;63065;51.082;17.016;2023-03-26T06:09:11;99170.50;;;13.73;36.17
56176;BME280;63065;51.082;17.016;2023-03-26T06:11:36;99172.36;;;14.13;35.87
56176;BME280;63065;51.082;17.016;2023-03-26T06:14:02;99168.36;;;14.03;36.07
56176;BME280;63065;51.082;17.016;2023-03-26T06:16:28;99175.04;;;13.66;36.29
56176;BME280;63065;51.082;17.016;2023-03-26T06:18:54;99173.29;;;13.40;36.47
56176;BME280;63065;51.082;17.016;2023-03-26T06:21:20;99172.57;;;13.60;36.54
56176;BME280;63065;51.082;17.016;2023-03-26T06:23:45;99171.31;;;13.84;36.04
56176;BME280;63065;51.082;17.016;2023-03-26T06:26:11;99172.37;;;14.00;36.38
56176;BME280;63065;51.082;17.016;2023-03-26T06:28:37;99175.88;;;14.36;35.69
56176;BME280;63065;51.082;17.016;2023-03-26T06:31:03;99174.89;;;14.26;35.71
56176;BME280;63065;51.082;17.016;2023-03-26T06:33:29;99177.47;;;13.98;35.97
56176;BME280;63065;51.082;17.016;2023-03-26T06:35:54;99174.95;;;14.13;35.49
56176;BME280;63065;51.082;17.016;2023-03-26T06:38:20;99173.72;;;14.09;36.05
56176;BME280;63065;51.082;17.016;2023-03-26T06:40:46;99178.87;;;14.02;35.67
56176;BME280;63065;51.082;17.016;2023-03-26T06:43:12;99180.76;;;14.28;35.23
56176;BME280;63065;51.082;17.016;2023-03-26T06:45:38;99181.44;;;14.47;35.20
56176;BME280;63065;51.082;17.016;2023-03-26T06:48:04;99175.90;;;14.20;35.43
56176;BME280;63065;51.082;17.016;2023-03-26T06:50:29;99179.02;;;14.56;34.78
56176;BME280;63065;51.082;17.016;2023-03-26T06:52:55;99178.10;;;14.32;34.96
56176;BME280;63065;51.082;17.016;2023-03-26T06:55:22;99178.69;;;14.15;35.59
56176;BME280;63065;51.082;17.016;2023-03-26T06:57:48;99178.92;;;14.30;34.86
56176;BME280;63065;51.082;17.016;2023-03-26T07:00:14;99177.66;;;14.34;35.38
56176;BME280;63065;51.082;17.016;2023-03-26T07:02:38;99177.78;;;14.08;35.53
56176;BME280;63065;51.082;17.016;2023-03-26T07:05:05;99178.74;;;13.96;35.78
56176;BME280;63065;51.082;17.016;2023-03-26T07:07:30;99178.56;;;14.38;35.15
56176;BME280;63065;51.082;17.016;2023-03-26T07:09:56;99180.46;;;13.78;35.14
56176;BME280;63065;51.082;17.016;2023-03-26T07:12:22;99182.66;;;14.08;35.45
56176;BME280;63065;51.082;17.016;2023-03-26T07:14:47;99191.09;;;14.28;35.18
56176;BME280;63065;51.082;17.016;2023-03-26T07:17:13;99194.55;;;13.21;36.35
56176;BME280;63065;51.082;17.016;2023-03-26T07:19:39;99192.46;;;13.84;36.34
56176;BME280;63065;51.082;17.016;2023-03-26T07:22:07;99193.47;;;12.40;38.43
56176;BME280;63065;51.082;17.016;2023-03-26T07:24:31;99199.73;;;12.51;40.50
56176;BME280;63065;51.082;17.016;2023-03-26T07:27:01;99198.76;;;11.95;42.00
56176;BME280;63065;51.082;17.016;2023-03-26T07:29:31;99197.58;;;13.13;39.87
56176;BME280;63065;51.082;17.016;2023-03-26T07:31:52;99197.37;;;13.81;39.80
56176;BME280;63065;51.082;17.016;2023-03-26T07:34:25;99196.15;;;13.99;39.36
56176;BME280;63065;51.082;17.016;2023-03-26T07:36:44;99193.16;;;13.68;39.06
56176;BME280;63065;51.082;17.016;2023-03-26T07:39:13;99193.76;;;14.00;38.74
56176;BME280;63065;51.082;17.016;2023-03-26T07:41:38;99196.15;;;13.85;39.04
56176;BME280;63065;51.082;17.016;2023-03-26T07:46:29;99189.11;;;14.33;38.52
56176;BME280;63065;51.082;17.016;2023-03-26T07:48:50;99186.31;;;14.86;37.05
56176;BME280;63065;51.082;17.016;2023-03-26T07:51:15;99187.27;;;15.12;36.10
56176;BME280;63065;51.082;17.016;2023-03-26T07:53:41;99187.54;;;15.50;36.34
56176;BME280;63065;51.082;17.016;2023-03-26T07:56:10;99181.60;;;15.49;36.07
56176;BME280;63065;51.082;17.016;2023-03-26T08:01:02;99171.80;;;15.87;35.22
56176;BME280;63065;51.082;17.016;2023-03-26T08:03:30;99171.71;;;14.78;35.64
56176;BME280;63065;51.082;17.016;2023-03-26T08:05:54;99176.32;;;14.74;36.16
56176;BME280;63065;51.082;17.016;2023-03-26T08:08:18;99172.42;;;14.63;35.36
56176;BME280;63065;51.082;17.016;2023-03-26T08:10:50;99175.50;;;14.95;36.27
56176;BME280;63065;51.082;17.016;2023-03-26T08:13:21;99171.55;;;14.96;35.23
56176;BME280;63065;51.082;17.016;2023-03-26T08:15:37;99171.26;;;14.61;36.00
56176;BME280;63065;51.082;17.016;2023-03-26T08:18:19;99168.93;;;14.84;34.96
56176;BME280;63065;51.082;17.016;2023-03-26T08:20:31;99165.01;;;15.06;34.69
56176;BME280;63065;51.082;17.016;2023-03-26T08:22:52;99166.99;;;14.96;34.95
56176;BME280;63065;51.082;17.016;2023-03-26T08:25:23;99159.45;;;15.16;34.74
56176;BME280;63065;51.082;17.016;2023-03-26T08:27:46;99167.12;;;15.06;35.54
56176;BME280;63065;51.082;17.016;2023-03-26T08:30:12;99164.46;;;14.76;35.82
56176;BME280;63065;51.082;17.016;2023-03-26T08:32:33;99161.08;;;14.66;36.83
56176;BME280;63065;51.082;17.016;2023-03-26T08:34:59;99157.83;;;14.42;36.95
56176;BME280;63065;51.082;17.016;2023-03-26T08:37:24;99152.80;;;14.36;36.10
56176;BME280;63065;51.082;17.016;2023-03-26T08:39:50;99149.63;;;13.97;36.48
56176;BME280;63065;51.082;17.016;2023-03-26T08:42:28;99141.25;;;14.49;36.70
56176;BME280;63065;51.082;17.016;2023-03-26T08:49:43;99137.61;;;16.09;34.59
56176;BME280;63065;51.082;17.016;2023-03-26T08:56:54;99134.90;;;15.59;32.88
56176;BME280;63065;51.082;17.016;2023-03-26T09:14:01;99128.57;;;15.90;33.29
56176;BME280;63065;51.082;17.016;2023-03-26T09:23:49;99121.55;;;15.34;33.63
56176;BME280;63065;51.082;17.016;2023-03-26T09:31:05;99112.55;;;15.54;34.09
56176;BME280;63065;51.082;17.016;2023-03-26T09:35:51;99140.92;;;14.77;35.89
56176;BME280;63065;51.082;17.016;2023-03-26T09:38:13;99137.67;;;15.29;34.55
56176;BME280;63065;51.082;17.016;2023-03-26T09:40:38;99140.57;;;15.12;34.87
56176;BME280;63065;51.082;17.016;2023-03-26T09:45:41;99135.70;;;15.48;35.08
56176;BME280;63065;51.082;17.016;2023-03-26T09:50:28;99136.02;;;15.52;35.38
56176;BME280;63065;51.082;17.016;2023-03-26T09:52:56;99136.60;;;15.62;34.76
56176;BME280;63065;51.082;17.016;2023-03-26T09:57:48;99134.83;;;15.83;34.74
56176;BME280;63065;51.082;17.016;2023-03-26T10:02:37;99127.44;;;16.10;34.11
56176;BME280;63065;51.082;17.016;2023-03-26T10:05:06;99126.74;;;16.19;34.72
56176;BME280;63065;51.082;17.016;2023-03-26T10:09:50;99126.74;;;16.62;33.71
56176;BME280;63065;51.082;17.016;2023-03-26T10:12:19;99132.59;;;16.21;33.86
56176;BME280;63065;51.082;17.016;2023-03-26T10:14:42;99136.73;;;16.30;33.84
56176;BME280;63065;51.082;17.016;2023-03-26T10:17:10;99138.70;;;15.68;33.58
56176;BME280;63065;51.082;17.016;2023-03-26T10:19:43;99134.48;;;15.85;33.52
56176;BME280;63065;51.082;17.016;2023-03-26T10:21:57;99130.27;;;15.85;32.66
56176;BME280;63065;51.082;17.016;2023-03-26T10:26:53;99126.56;;;15.97;31.87
56176;BME280;63065;51.082;17.016;2023-03-26T10:29:24;99121.16;;;16.05;32.20
56176;BME280;63065;51.082;17.016;2023-03-26T10:31:39;99117.20;;;16.04;30.97
56176;BME280;63065;51.082;17.016;2023-03-26T10:34:07;99115.14;;;16.16;30.84
56176;BME280;63065;51.082;17.016;2023-03-26T10:36:30;99114.81;;;15.31;31.44
56176;BME280;63065;51.082;17.016;2023-03-26T10:39:02;99107.78;;;15.31;31.20
56176;BME280;63065;51.082;17.016;2023-03-26T10:41:21;99103.42;;;15.82;31.50
56176;BME280;63065;51.082;17.016;2023-03-26T10:43:55;99104.36;;;16.00;30.89
56176;BME280;63065;51.082;17.016;2023-03-26T10:46:23;99101.36;;;16.14;30.55
56176;BME280;63065;51.082;17.016;2023-03-26T10:48:45;99102.25;;;16.19;30.46
56176;BME280;63065;51.082;17.016;2023-03-26T10:51:19;99103.13;;;16.50;29.88
56176;BME280;63065;51.082;17.016;2023-03-26T10:53:33;99102.76;;;16.10;30.43
56176;BME280;63065;51.082;17.016;2023-03-26T10:56:02;99105.58;;;15.97;29.48
56176;BME280;63065;51.082;17.016;2023-03-26T10:58:23;99092.97;;;15.71;29.85
56176;BME280;63065;51.082;17.016;2023-03-26T11:00:52;99098.24;;;15.08;31.93
56176;BME280;63065;51.082;17.016;2023-03-26T11:05:45;99095.09;;;15.22;31.86
56176;BME280;63065;51.082;17.016;2023-03-26T11:08:06;99092.71;;;15.00;32.24
56176;BME280;63065;51.082;17.016;2023-03-26T11:10:38;99085.48;;;15.57;31.56
56176;BME280;63065;51.082;17.016;2023-03-26T11:12:58;99080.69;;;16.26;31.38
56176;BME280;63065;51.082;17.016;2023-03-26T11:15:23;99079.44;;;17.43;29.82
56176;BME280;63065;51.082;17.016;2023-03-26T11:17:54;99076.68;;;17.16;29.28
56176;BME280;63065;51.082;17.016;2023-03-26T11:20:16;99073.94;;;16.93;29.81
56176;BME280;63065;51.082;17.016;2023-03-26T11:22:45;99070.58;;;16.97;28.29
56176;BME280;63065;51.082;17.016;2023-03-26T11:27:39;99071.00;;;17.33;28.39
56176;BME280;63065;51.082;17.016;2023-03-26T11:30:02;99073.34;;;17.41;25.94
56176;BME280;63065;51.082;17.016;2023-03-26T11:32:21;99076.57;;;17.54;27.01
56176;BME280;63065;51.082;17.016;2023-03-26T11:34:50;99070.18;;;17.24;26.41
56176;BME280;63065;51.082;17.016;2023-03-26T11:37:15;99074.77;;;17.26;28.43
56176;BME280;63065;51.082;17.016;2023-03-26T11:39:41;99066.88;;;17.64;27.28
56176;BME280;63065;51.082;17.016;2023-03-26T11:42:05;99065.41;;;17.99;25.79
56176;BME280;63065;51.082;17.016;2023-03-26T11:44:30;99066.79;;;18.00;26.43
56176;BME280;63065;51.082;17.016;2023-03-26T11:46:57;99065.14;;;18.13;26.90
56176;BME280;63065;51.082;17.016;2023-03-26T11:49:21;99058.58;;;18.03;25.89
56176;BME280;63065;51.082;17.016;2023-03-26T11:51:46;99054.46;;;17.74;26.13
56176;BME280;63065;51.082;17.016;2023-03-26T11:54:12;99057.35;;;16.94;27.38
56176;BME280;63065;51.082;17.016;2023-03-26T11:56:42;99056.49;;;16.06;30.09
56176;BME280;63065;51.082;17.016;2023-03-26T11:59:05;99055.15;;;16.92;30.55
56176;BME280;63065;51.082;17.016;2023-03-26T12:03:57;99056.79;;;17.54;30.12
56176;BME280;63065;51.082;17.016;2023-03-26T12:06:24;99054.81;;;17.33;30.47
56176;BME280;63065;51.082;17.016;2023-03-26T12:08:46;99056.02;;;16.94;30.13
56176;BME280;63065;51.082;17.016;2023-03-26T12:11:11;99055.03;;;16.72;30.59
56176;BME280;63065;51.082;17.016;2023-03-26T12:13:40;99054.82;;;16.38;31.53
56176;BME280;63065;51.082;17.016;2023-03-26T12:16:09;99057.79;;;16.69;30.70
56176;BME280;63065;51.082;17.016;2023-03-26T12:18:29;99053.04;;;16.67;30.29
56176;BME280;63065;51.082;17.016;2023-03-26T12:21:03;99050.97;;;16.34;31.41
56176;BME280;63065;51.082;17.016;2023-03-26T12:28:17;99034.57;;;16.78;31.27
56176;BME280;63065;51.082;17.016;2023-03-26T12:30:38;99040.29;;;17.11;30.49
56176;BME280;63065;51.082;17.016;2023-03-26T12:33:05;99034.17;;;16.59;29.26
56176;BME280;63065;51.082;17.016;2023-03-26T12:35:30;99031.20;;;17.37;29.72
56176;BME280;63065;51.082;17.016;2023-03-26T12:38:11;99028.95;;;17.49;28.75
56176;BME280;63065;51.082;17.016;2023-03-26T12:40:30;99025.26;;;17.59;28.48
56176;BME280;63065;51.082;17.016;2023-03-26T12:42:51;99023.01;;;17.16;28.30
56176;BME280;63065;51.082;17.016;2023-03-26T12:45:12;99023.02;;;17.05;28.69
56176;BME280;63065;51.082;17.016;2023-03-26T12:47:37;99023.26;;;17.47;28.29
56176;BME280;63065;51.082;17.016;2023-03-26T12:50:04;99023.58;;;17.01;28.75
56176;BME280;63065;51.082;17.016;2023-03-26T12:52:42;99014.70;;;17.43;28.61
56176;BME280;63065;51.082;17.016;2023-03-26T12:54:59;99012.04;;;17.72;28.93
56176;BME280;63065;51.082;17.016;2023-03-26T12:57:21;99008.16;;;17.88;27.66
56176;BME280;63065;51.082;17.016;2023-03-26T12:59:55;99002.88;;;18.22;26.99
56176;BME280;63065;51.082;17.016;2023-03-26T13:02:22;98994.68;;;18.56;27.71
56176;BME280;63065;51.082;17.016;2023-03-26T13:04:48;98993.56;;;18.47;27.27
56176;BME280;63065;51.082;17.016;2023-03-26T13:07:13;98988.06;;;18.45;27.19
56176;BME280;63065;51.082;17.016;2023-03-26T13:12:05;98995.28;;;18.03;27.05
56176;BME280;63065;51.082;17.016;2023-03-26T13:14:32;98989.47;;;17.39;28.20
56176;BME280;63065;51.082;17.016;2023-03-26T13:16:50;98989.09;;;17.83;27.73
56176;BME280;63065;51.082;17.016;2023-03-26T13:19:15;98984.09;;;18.12;26.95
56176;BME280;63065;51.082;17.016;2023-03-26T13:21:48;98981.24;;;18.10;27.07
56176;BME280;63065;51.082;17.016;2023-03-26T13:24:12;98982.02;;;17.93;27.30
56176;BME280;63065;51.082;17.016;2023-03-26T13:26:40;98977.80;;;18.60;27.72
56176;BME280;63065;51.082;17.016;2023-03-26T13:29:00;98974.97;;;18.25;27.63
56176;BME280;63065;51.082;17.016;2023-03-26T13:31:24;98980.12;;;18.44;27.19
56176;BME280;63065;51.082;17.016;2023-03-26T13:33:57;98974.73;;;18.46;27.03
56176;BME280;63065;51.082;17.016;2023-03-26T13:36:16;98976.74;;;18.83;27.31
56176;BME280;63065;51.082;17.016;2023-03-26T13:38:45;98975.88;;;18.78;26.21
56176;BME280;63065;51.082;17.016;2023-03-26T13:41:08;98977.23;;;19.02;26.59
56176;BME280;63065;51.082;17.016;2023-03-26T13:43:35;98978.32;;;18.93;26.05
56176;BME280;63065;51.082;17.016;2023-03-26T13:45:57;98977.32;;;18.87;26.68
56176;BME280;63065;51.082;17.016;2023-03-26T13:48:23;98974.88;;;18.77;28.03
56176;BME280;63065;51.082;17.016;2023-03-26T13:50:52;98972.13;;;18.48;27.40
56176;BME280;63065;51.082;17.016;2023-03-26T13:53:15;98972.02;;;18.49;27.92
56176;BME280;63065;51.082;17.016;2023-03-26T13:55:40;98974.72;;;18.97;26.56